»·PEaware :: N51964 KBUR-KLAS

N51964 :: KBUR-KLAS

FLIGHT INFORMATION

Flight Status: Arrived
Operator: Privately registered:
United States
More flights under this callsign
Pilot: Steven R. (3333)
Aircraft: CESSNA 206 STATIONAIR
(C206)
More flights by this aircraft type
Origin: KBUR Bob Hope-Burbank
United States
Destination: KLAS McCarran Intl
United States
More flights between these airports :: More routes between these airports
Route: +VNY3 DAG CRSO4
File this flight plan on PilotEdge
Remarks: I5 TEST
Altitude:
(Current/Filed)
7,000ft
Speed:
(Current/Filed)
138kts
Departed: 31-Mar-19 09:26 AM
Arrived: 31-Mar-19 11:06 AM
Distance/Time
Traveled:
193nm/1:39
Distance/Time
To Go:
Arrived

Flight Plot

Page will automatically refresh every two minutes.

Flight plan parsing failed; only flown route is shown


Map Options




Map Legend


Flown Route
Filed Route
Departure Airport
Arrival Airport
Navaid (VOR, NDB)
Fix

Horizontal Profiles

Position Reports

Time Latitude Longitude Heading Altitude Ground
Speed
31-Mar-19 09:09 34.210739 -118.357947 257 758ft 0kts
31-Mar-19 09:10 34.210739 -118.357947 257 758ft 0kts
31-Mar-19 09:11 34.210739 -118.357947 257 758ft 0kts
31-Mar-19 09:12 34.210739 -118.357947 257 758ft 0kts
31-Mar-19 09:13 34.210739 -118.357947 257 758ft 0kts
31-Mar-19 09:14 34.210739 -118.357947 257 758ft 0kts
31-Mar-19 09:15 34.210739 -118.357947 257 758ft 0kts
31-Mar-19 09:16 34.210739 -118.357947 257 758ft 0kts
31-Mar-19 09:17 34.210739 -118.357947 257 758ft 0kts
31-Mar-19 09:18 34.210739 -118.357947 257 758ft 0kts
31-Mar-19 09:19 34.210739 -118.357947 257 758ft 0kts
31-Mar-19 09:20 34.210739 -118.357947 257 758ft 0kts
31-Mar-19 09:21 34.210739 -118.357947 257 758ft 0kts
31-Mar-19 09:22 34.210739 -118.358082 286 758ft 8kts
31-Mar-19 09:23 34.211716 -118.359128 306 763ft 0kts
31-Mar-19 09:23 34.211716 -118.359128 306 763ft 0kts
31-Mar-19 09:25 34.211751 -118.359186 305 763ft 7kts
31-Mar-19 09:26 34.192466 -118.362870 217 1594ft 109kts
31-Mar-19 09:26 34.173848 -118.384747 224 2880ft 115kts
31-Mar-19 09:28 34.160015 -118.422739 318 4198ft 124kts
31-Mar-19 09:28 34.182365 -118.430529 351 5141ft 84kts
31-Mar-19 09:29 34.205263 -118.434299 351 6062ft 83kts
31-Mar-19 09:31 34.231979 -118.438317 352 7065ft 85kts
31-Mar-19 09:31 34.251581 -118.440962 352 7876ft 85kts
31-Mar-19 09:32 34.274806 -118.443962 349 8842ft 84kts
31-Mar-19 09:34 34.301996 -118.448476 349 9931ft 85kts
31-Mar-19 09:34 34.321537 -118.451449 348 10693ft 85kts
31-Mar-19 09:35 34.349426 -118.455642 350 11007ft 121kts
31-Mar-19 09:36 34.384876 -118.455720 24 11020ft 138kts
31-Mar-19 09:37 34.410039 -118.417950 46 11040ft 147kts
31-Mar-19 09:38 34.434644 -118.378471 45 11047ft 147kts
31-Mar-19 09:39 34.459362 -118.339128 45 11062ft 146kts
31-Mar-19 09:40 34.484147 -118.299585 45 11077ft 146kts
31-Mar-19 09:41 34.508808 -118.260272 45 11092ft 146kts
31-Mar-19 09:42 34.533442 -118.220907 45 11098ft 143kts
31-Mar-19 09:43 34.557600 -118.182302 45 11108ft 143kts
31-Mar-19 09:44 34.581859 -118.144014 44 11104ft 143kts
31-Mar-19 09:45 34.606580 -118.104841 45 10983ft 146kts
31-Mar-19 09:46 34.630582 -118.065605 53 10976ft 146kts
31-Mar-19 09:47 34.637115 -118.015296 76 10983ft 152kts
31-Mar-19 09:48 34.642715 -117.964048 75 10977ft 152kts
31-Mar-19 09:49 34.648445 -117.913124 75 10977ft 152kts
31-Mar-19 09:50 34.654124 -117.862157 75 10964ft 152kts
31-Mar-19 09:51 34.659823 -117.811006 75 10961ft 152kts
31-Mar-19 09:52 34.665218 -117.759976 75 10957ft 152kts
31-Mar-19 09:53 34.677606 -117.711931 64 10953ft 149kts
31-Mar-19 09:54 34.690177 -117.663796 65 10951ft 149kts
31-Mar-19 09:55 34.702697 -117.615466 65 10948ft 150kts
31-Mar-19 09:56 34.715260 -117.566960 65 10948ft 150kts
31-Mar-19 09:57 34.727741 -117.518695 65 10953ft 150kts
31-Mar-19 09:58 34.740257 -117.470142 65 10952ft 150kts
31-Mar-19 09:59 34.752740 -117.421658 65 10947ft 150kts
31-Mar-19 10:00 34.765198 -117.373240 65 10946ft 150kts
31-Mar-19 10:01 34.777606 -117.324827 65 10989ft 148kts
31-Mar-19 10:02 34.789940 -117.276694 65 10988ft 149kts
31-Mar-19 10:03 34.802313 -117.228316 65 10985ft 149kts
31-Mar-19 10:04 34.814605 -117.180075 65 10982ft 149kts
31-Mar-19 10:05 34.826988 -117.131474 65 10981ft 150kts
31-Mar-19 10:06 34.839292 -117.083087 65 10976ft 150kts
31-Mar-19 10:07 34.851602 -117.034513 65 10975ft 149kts
31-Mar-19 10:08 34.863802 -116.986386 65 10970ft 145kts
31-Mar-19 10:09 34.876027 -116.938128 65 10969ft 150kts
31-Mar-19 10:10 34.888305 -116.889414 65 10967ft 150kts
31-Mar-19 10:11 34.900563 -116.840779 65 10964ft 149kts
31-Mar-19 10:12 34.912710 -116.792378 65 10961ft 149kts
31-Mar-19 10:13 34.924888 -116.743858 65 10958ft 149kts
31-Mar-19 10:14 34.936989 -116.695594 65 10955ft 148kts
31-Mar-19 10:15 34.949030 -116.647340 65 10955ft 148kts
31-Mar-19 10:16 34.960516 -116.598961 73 10951ft 150kts
31-Mar-19 10:17 34.977259 -116.555481 69 10950ft 148kts
31-Mar-19 10:18 34.993858 -116.510794 52 10943ft 143kts
31-Mar-19 10:19 35.013594 -116.468614 52 10942ft 142kts
31-Mar-19 10:20 35.033249 -116.426541 52 10936ft 142kts
31-Mar-19 10:21 35.050564 -116.382704 57 10937ft 143kts
31-Mar-19 10:22 35.069388 -116.340114 53 10964ft 140kts
31-Mar-19 10:23 35.088782 -116.298513 53 10972ft 141kts
31-Mar-19 10:24 35.108278 -116.256544 53 11005ft 141kts
31-Mar-19 10:25 35.127860 -116.214397 53 11006ft 143kts
31-Mar-19 10:26 35.147549 -116.171967 53 11002ft 143kts
31-Mar-19 10:27 35.167218 -116.129480 53 11000ft 143kts
31-Mar-19 10:28 35.186821 -116.087118 53 11000ft 143kts
31-Mar-19 10:29 35.206411 -116.044761 53 10995ft 143kts
31-Mar-19 10:30 35.226058 -116.002155 53 10993ft 143kts
31-Mar-19 10:31 35.245600 -115.959771 53 11000ft 143kts
31-Mar-19 10:32 35.265232 -115.917159 53 10997ft 143kts
31-Mar-19 10:33 35.284731 -115.874729 52 11004ft 143kts
31-Mar-19 10:34 35.304344 -115.832028 52 11000ft 143kts
31-Mar-19 10:35 35.323500 -115.789797 58 11113ft 142kts
31-Mar-19 10:36 35.342009 -115.747311 41 11059ft 142kts
31-Mar-19 10:37 35.368252 -115.711360 40 11022ft 140kts
31-Mar-19 10:38 35.395002 -115.676730 38 11020ft 139kts
31-Mar-19 10:39 35.421824 -115.642449 38 11019ft 139kts
31-Mar-19 10:40 35.448525 -115.608266 38 11019ft 139kts
31-Mar-19 10:41 35.475349 -115.573899 38 11014ft 139kts
31-Mar-19 10:42 35.502176 -115.539514 38 11012ft 139kts
31-Mar-19 10:43 35.525919 -115.501289 42 11007ft 140kts
31-Mar-19 10:44 35.552279 -115.466515 38 11007ft 138kts
31-Mar-19 10:45 35.579001 -115.432174 38 11006ft 138kts
31-Mar-19 10:46 35.605671 -115.397843 38 11001ft 139kts
31-Mar-19 10:47 35.632260 -115.363607 38 11000ft 138kts
31-Mar-19 10:48 35.658848 -115.329317 39 11032ft 137kts
31-Mar-19 10:49 35.685490 -115.294940 39 10960ft 139kts
31-Mar-19 10:50 35.712507 -115.260007 39 10364ft 141kts
31-Mar-19 10:51 35.739315 -115.226284 21 10018ft 125kts
31-Mar-19 10:52 35.773773 -115.233663 351 9062ft 130kts
31-Mar-19 10:53 35.801899 -115.258395 312 7883ft 130kts
31-Mar-19 10:54 35.824493 -115.292624 312 6734ft 128kts
31-Mar-19 10:55 35.851070 -115.311646 16 6009ft 105kts
31-Mar-19 10:56 35.873951 -115.297175 21 6013ft 83kts
31-Mar-19 10:57 35.892982 -115.283704 38 6026ft 77kts
31-Mar-19 10:58 35.912805 -115.263563 28 6027ft 115kts
31-Mar-19 10:59 35.941925 -115.243729 22 6005ft 112kts
31-Mar-19 11:00 35.967475 -115.230562 9 5425ft 95kts
31-Mar-19 11:01 35.992733 -115.217552 21 4972ft 98kts
31-Mar-19 11:02 36.016669 -115.203859 20 4429ft 82kts
31-Mar-19 11:03 36.040111 -115.190488 21 3437ft 91kts
31-Mar-19 11:04 36.064723 -115.176426 21 2572ft 97kts
31-Mar-19 11:05 36.084872 -115.165003 21 2143ft 37kts
31-Mar-19 11:06 36.088308 -115.165372 208 2138ft 27kts
31-Mar-19 11:07 36.085901 -115.167941 217 2152ft 0kts
31-Mar-19 11:08 36.085901 -115.167941 217 2152ft 0kts
31-Mar-19 11:09 36.085901 -115.167941 217 2152ft 0kts
31-Mar-19 11:10 36.085901 -115.167941 217 2152ft 0kts
31-Mar-19 11:11 36.085901 -115.167941 217 2152ft 0kts
31-Mar-19 11:12 36.085901 -115.167941 217 2152ft 0kts
31-Mar-19 11:13 36.085901 -115.167941 217 2152ft 0kts
31-Mar-19 11:14 36.085901 -115.167941 217 2152ft 0kts
31-Mar-19 11:15 36.085901 -115.167941 217 2152ft 0kts
31-Mar-19 11:16 36.085901 -115.167941 217 2152ft 0kts
31-Mar-19 11:17 36.085901 -115.167941 217 2152ft 0kts
31-Mar-19 11:18 36.085901 -115.167941 217 2152ft 0kts
31-Mar-19 11:19 36.085901 -115.167941 217 2152ft 0kts

Navigation Log

Ident Type
Flight plan parsing failed, navigation log unavailable